createdAt,value
2023-02-15T00:01:12.360Z,102611.81
2023-02-15T00:03:42.552Z,102602.53
2023-02-15T00:06:12.029Z,102613.25
2023-02-15T00:08:42.387Z,102606.94
2023-02-15T00:11:38.329Z,102611.13
2023-02-15T00:14:18.071Z,102603.75
2023-02-15T00:16:52.026Z,102608.75
2023-02-15T00:19:22.719Z,102613.75
2023-02-15T00:21:50.966Z,102606.19
2023-02-15T00:24:21.134Z,102599.47
2023-02-15T00:26:51.544Z,102601.78
2023-02-15T00:29:21.941Z,102598.59
2023-02-15T00:31:53.304Z,102604.44
2023-02-15T00:34:28.252Z,102597.94
2023-02-15T00:37:01.174Z,102592.88
2023-02-15T00:39:31.242Z,102594.13
2023-02-15T00:42:01.322Z,102592.66
2023-02-15T00:44:31.374Z,102594.09
2023-02-15T00:47:01.428Z,102592.63
2023-02-15T00:49:31.548Z,102593.00
2023-02-15T00:52:01.654Z,102597.16
2023-02-15T00:54:31.798Z,102582.91
2023-02-15T00:57:02.345Z,102587.06
2023-02-15T00:59:32.363Z,102576.78
2023-02-15T01:02:02.654Z,102579.09
2023-02-15T01:04:32.824Z,102584.09
2023-02-15T01:07:04.639Z,102578.81
2023-02-15T01:09:34.713Z,102578.41
2023-02-15T01:12:05.720Z,102576.25
2023-02-15T01:14:36.046Z,102576.47
2023-02-15T01:17:06.264Z,102576.84
2023-02-15T01:19:36.288Z,102578.28
2023-02-15T01:22:06.624Z,102581.41
2023-02-15T01:24:34.777Z,102570.06
2023-02-15T01:27:03.178Z,102572.16
2023-02-15T01:29:31.669Z,102559.78
2023-02-15T01:32:00.220Z,102561.41
2023-02-15T01:34:31.563Z,102550.09
2023-02-15T01:37:01.998Z,102545.88
2023-02-15T01:39:32.020Z,102545.22
2023-02-15T01:42:02.031Z,102543.09
2023-02-15T01:45:00.033Z,102535.97
2023-02-15T01:47:53.643Z,102536.19
2023-02-15T01:50:56.845Z,102528.38
2023-02-15T01:53:43.937Z,102520.81
2023-02-15T01:56:25.910Z,102522.91
2023-02-15T01:59:09.202Z,102523.13
2023-02-15T02:01:36.955Z,102518.88
2023-02-15T02:04:26.671Z,102516.38
2023-02-15T02:07:01.097Z,102514.88
2023-02-15T02:09:31.780Z,102504.22
2023-02-15T02:12:03.360Z,102505.44
2023-02-15T02:14:34.118Z,102506.47
2023-02-15T02:17:47.577Z,102501.22
2023-02-15T02:21:32.593Z,102505.19
2023-02-15T02:25:04.149Z,102499.09
2023-02-15T02:27:41.022Z,102500.97
2023-02-15T02:30:33.441Z,102494.91
2023-02-15T02:33:34.343Z,102505.13
2023-02-15T02:36:47.268Z,102492.56
2023-02-15T02:40:10.235Z,102489.66
2023-02-15T02:43:01.322Z,102487.56
2023-02-15T02:45:47.695Z,102479.09
2023-02-15T02:48:26.387Z,102472.63
2023-02-15T02:50:55.739Z,102472.38
2023-02-15T02:53:31.374Z,102468.69
2023-02-15T02:56:38.777Z,102471.88
2023-02-15T02:59:25.591Z,102461.59
2023-02-15T03:02:15.173Z,102459.13
2023-02-15T03:04:59.617Z,102454.72
2023-02-15T03:07:34.148Z,102459.13
2023-02-15T03:10:10.617Z,102466.84
2023-02-15T03:12:42.759Z,102466.47
2023-02-15T03:15:50.661Z,102461.81
2023-02-15T03:18:34.941Z,102449.47
2023-02-15T03:21:23.083Z,102446.97
2023-02-15T03:24:11.904Z,102443.63
2023-02-15T03:26:49.159Z,102434.59
2023-02-15T03:29:28.488Z,102438.94
2023-02-15T03:32:08.129Z,102451.06
2023-02-15T03:34:38.893Z,102460.84
2023-02-15T03:37:40.235Z,102454.81
2023-02-15T03:40:51.184Z,102455.06
2023-02-15T03:44:16.144Z,102451.09
2023-02-15T03:47:18.316Z,102445.84
2023-02-15T03:50:31.644Z,102449.97
2023-02-15T03:53:10.864Z,102449.13
2023-02-15T03:55:41.198Z,102442.44
2023-02-15T03:58:29.898Z,102435.06
2023-02-15T04:01:42.558Z,102433.41
2023-02-15T04:04:25.614Z,102431.72
2023-02-15T04:06:55.774Z,102431.97
2023-02-15T04:09:44.563Z,102422.47
2023-02-15T04:12:19.393Z,102419.91
2023-02-15T04:15:08.360Z,102422.59
2023-02-15T04:17:39.532Z,102421.03
2023-02-15T04:20:28.845Z,102426.25
2023-02-15T04:23:17.562Z,102414.91
2023-02-15T04:25:47.436Z,102414.69
2023-02-15T04:28:17.180Z,102412.97
2023-02-15T04:30:48.086Z,102416.13
2023-02-15T04:33:18.158Z,102411.69
2023-02-15T04:35:47.845Z,102412.94
2023-02-15T04:38:17.680Z,102407.69
2023-02-15T04:40:52.191Z,102408.94
2023-02-15T04:43:21.127Z,102408.28
2023-02-15T04:45:51.673Z,102407.00
2023-02-15T04:48:21.858Z,102399.44
2023-02-15T04:50:51.486Z,102393.53
2023-02-15T04:53:21.252Z,102382.63
2023-02-15T04:55:51.294Z,102387.22
2023-02-15T04:58:21.298Z,102385.97
2023-02-15T05:00:51.203Z,102377.63
2023-02-15T05:03:19.769Z,102369.34
2023-02-15T05:05:48.198Z,102365.72
2023-02-15T05:08:16.708Z,102368.91
2023-02-15T05:10:45.078Z,102371.22
2023-02-15T05:13:13.617Z,102365.38
2023-02-15T05:15:44.637Z,102355.75
2023-02-15T05:18:13.521Z,102358.47
2023-02-15T05:20:42.103Z,102353.91
2023-02-15T05:23:10.855Z,102354.09
2023-02-15T05:25:58.087Z,102353.03
2023-02-15T05:28:29.075Z,102349.25
2023-02-15T05:31:18.897Z,102351.59
2023-02-15T05:33:48.435Z,102351.75
2023-02-15T05:36:15.749Z,102354.09
2023-02-15T05:38:45.689Z,102356.88
2023-02-15T05:41:15.737Z,102349.75
2023-02-15T05:43:45.600Z,102346.78
2023-02-15T05:46:15.354Z,102354.94
2023-02-15T05:48:45.196Z,102342.22
2023-02-15T05:51:16.903Z,102346.19
2023-02-15T05:53:46.239Z,102343.66
2023-02-15T05:56:15.935Z,102343.41
2023-02-15T05:58:45.641Z,102344.31
2023-02-15T06:01:20.131Z,102343.41
2023-02-15T06:03:50.071Z,102346.75
2023-02-15T06:06:18.632Z,102346.38
2023-02-15T06:08:46.773Z,102353.75
2023-02-15T06:11:15.218Z,102349.25
2023-02-15T06:13:44.534Z,102361.38
2023-02-15T06:16:12.124Z,102342.38
2023-02-15T06:18:40.699Z,102342.78
2023-02-15T06:21:08.833Z,102349.22
2023-02-15T06:23:37.280Z,102349.78
2023-02-15T06:26:05.725Z,102350.38
2023-02-15T06:28:34.159Z,102349.09
2023-02-15T06:31:02.563Z,102349.53
2023-02-15T06:33:34.995Z,102346.38
2023-02-15T06:36:05.833Z,102345.91
2023-02-15T06:38:35.896Z,102345.41
2023-02-15T06:41:06.228Z,102346.44
2023-02-15T06:43:36.334Z,102352.28
2023-02-15T06:46:06.412Z,102343.50
2023-02-15T06:48:36.658Z,102344.78
2023-02-15T06:51:06.799Z,102322.44
2023-02-15T06:53:37.078Z,102331.34
2023-02-15T06:56:10.205Z,102327.03
2023-02-15T06:58:42.761Z,102334.78
2023-02-15T07:01:13.402Z,102336.38
2023-02-15T07:03:43.445Z,102333.19
2023-02-15T07:06:13.763Z,102327.75
2023-02-15T07:08:43.872Z,102326.78
2023-02-15T07:11:32.370Z,102325.66
2023-02-15T07:14:02.473Z,102330.22
2023-02-15T07:16:32.539Z,102327.09
2023-02-15T07:19:03.039Z,102326.94
2023-02-15T07:21:33.060Z,102327.56
2023-02-15T07:24:02.520Z,102314.78
2023-02-15T07:26:33.968Z,102323.47
2023-02-15T07:29:01.357Z,102316.13
2023-02-15T07:31:29.839Z,102323.31
2023-02-15T07:33:57.969Z,102307.59
2023-02-15T07:36:26.417Z,102313.97
2023-02-15T07:38:54.838Z,102315.97
2023-02-15T07:41:24.633Z,102307.59
2023-02-15T07:43:51.735Z,102306.50
2023-02-15T07:46:21.912Z,102302.78
2023-02-15T07:48:50.694Z,102303.44
2023-02-15T07:51:19.075Z,102294.66
2023-02-15T07:53:48.257Z,102294.09
2023-02-15T07:56:16.708Z,102292.69
2023-02-15T07:58:53.771Z,102295.06
2023-02-15T08:01:37.217Z,102288.84
2023-02-15T08:04:08.874Z,102287.78
2023-02-15T08:06:38.503Z,102291.59
2023-02-15T08:09:11.473Z,102286.78
2023-02-15T08:11:43.843Z,102294.50
2023-02-15T08:14:21.502Z,102290.31
2023-02-15T08:16:58.530Z,102288.00
2023-02-15T08:19:32.867Z,102282.97
2023-02-15T08:22:07.336Z,102285.31
2023-02-15T08:24:38.348Z,102280.06
2023-02-15T08:27:10.437Z,102281.75
2023-02-15T08:29:42.240Z,102277.59
2023-02-15T08:32:13.874Z,102287.41
2023-02-15T08:34:43.242Z,102288.47
2023-02-15T08:37:11.876Z,102281.78
2023-02-15T08:39:39.534Z,102273.22
2023-02-15T08:42:14.122Z,102269.00
2023-02-15T08:44:41.200Z,102268.59
2023-02-15T08:47:10.907Z,102267.75
2023-02-15T08:49:40.705Z,102265.03
2023-02-15T08:52:10.482Z,102261.88
2023-02-15T08:54:40.323Z,102265.22
2023-02-15T08:57:11.382Z,102250.94
2023-02-15T08:59:40.710Z,102248.34
2023-02-15T09:02:12.338Z,102243.75
2023-02-15T09:04:41.647Z,102239.53
2023-02-15T09:07:11.390Z,102244.13
2023-02-15T09:09:41.088Z,102242.38
2023-02-15T09:12:18.405Z,102240.50
2023-02-15T09:14:45.790Z,102232.06
2023-02-15T09:17:15.915Z,102236.44
2023-02-15T09:19:43.239Z,102234.78
2023-02-15T09:22:12.879Z,102223.94
2023-02-15T09:24:42.721Z,102226.81
2023-02-15T09:27:12.688Z,102233.34
2023-02-15T09:29:42.427Z,102234.72
2023-02-15T09:32:16.493Z,102234.22
2023-02-15T09:34:44.665Z,102228.59
2023-02-15T09:37:14.632Z,102231.94
2023-02-15T09:39:45.339Z,102236.13
2023-02-15T09:42:37.494Z,102238.44
2023-02-15T09:45:19.084Z,102237.00
2023-02-15T09:48:22.442Z,102243.13
2023-02-15T09:51:37.812Z,102239.06
2023-02-15T09:54:47.764Z,102230.69
2023-02-15T09:58:19.714Z,102234.34
2023-02-15T10:01:20.788Z,102223.28
2023-02-15T10:04:16.612Z,102228.00
2023-02-15T10:07:36.639Z,102212.78
2023-02-15T10:10:46.101Z,102223.53
2023-02-15T10:13:55.474Z,102226.63
2023-02-15T10:17:09.255Z,102219.63
2023-02-15T10:20:23.917Z,102224.09
2023-02-15T10:23:23.733Z,102218.28
2023-02-15T10:26:22.157Z,102217.59
2023-02-15T10:28:56.459Z,102209.75
2023-02-15T10:32:30.448Z,102205.47
2023-02-15T10:35:08.429Z,102200.00
2023-02-15T10:38:03.640Z,102203.56
2023-02-15T10:41:05.155Z,102198.47
2023-02-15T10:44:29.412Z,102194.31
2023-02-15T10:48:13.429Z,102178.13
2023-02-15T10:50:59.141Z,102178.28
2023-02-15T10:53:59.570Z,102182.47
2023-02-15T10:57:10.908Z,102176.78
2023-02-15T11:00:30.064Z,102177.19
2023-02-15T11:03:41.797Z,102174.53
2023-02-15T11:06:23.361Z,102175.13
2023-02-15T11:09:05.907Z,102180.41
2023-02-15T11:11:49.041Z,102172.28
2023-02-15T11:14:55.217Z,102160.38
2023-02-15T11:17:44.505Z,102162.31
2023-02-15T11:20:40.059Z,102158.13
2023-02-15T11:23:19.330Z,102148.22
2023-02-15T11:26:05.874Z,102141.44
2023-02-15T11:28:56.173Z,102138.19
2023-02-15T11:31:36.538Z,102140.38
2023-02-15T11:34:33.255Z,102141.81
2023-02-15T11:37:19.247Z,102130.19
2023-02-15T11:39:55.724Z,102125.88
2023-02-15T11:42:30.458Z,102130.00
2023-02-15T11:45:29.892Z,102122.06
2023-02-15T11:48:09.764Z,102107.22
2023-02-15T11:50:41.957Z,102102.47
2023-02-15T11:53:22.545Z,102106.81
2023-02-15T11:55:52.692Z,102108.03
2023-02-15T11:59:25.931Z,102108.34
2023-02-15T12:01:56.080Z,102098.81
2023-02-15T12:04:45.326Z,102099.97
2023-02-15T12:07:27.502Z,102100.03
2023-02-15T12:10:41.162Z,102101.97
2023-02-15T12:13:21.251Z,102093.47
2023-02-15T12:16:06.981Z,102093.59
2023-02-15T12:18:48.022Z,102095.75
2023-02-15T12:21:43.370Z,102097.81
2023-02-15T12:24:33.488Z,102097.03
2023-02-15T12:27:31.517Z,102094.88
2023-02-15T12:30:22.736Z,102091.16
2023-02-15T12:33:37.199Z,102075.31
2023-02-15T12:36:46.773Z,102073.34
2023-02-15T12:39:23.238Z,102072.84
2023-02-15T12:41:57.058Z,102058.28
2023-02-15T12:44:35.336Z,102063.31
2023-02-15T12:47:17.307Z,102059.72
2023-02-15T12:50:18.286Z,102056.66
2023-02-15T12:53:06.398Z,102041.50
2023-02-15T12:55:37.608Z,102034.34
2023-02-15T12:58:31.889Z,102041.34
2023-02-15T13:01:11.936Z,102029.75
2023-02-15T13:04:02.384Z,102032.81
2023-02-15T13:06:36.845Z,102036.41
2023-02-15T13:09:24.743Z,102025.06
2023-02-15T13:11:54.158Z,102027.25
2023-02-15T13:14:33.605Z,102019.22
2023-02-15T13:17:08.704Z,102015.63
2023-02-15T13:19:49.011Z,102008.69
2023-02-15T13:22:34.263Z,102007.56
2023-02-15T13:25:22.494Z,102005.00
2023-02-15T13:28:04.353Z,102004.59
2023-02-15T13:30:45.451Z,101997.69
2023-02-15T13:33:39.177Z,101984.72
2023-02-15T13:37:05.091Z,101986.78
2023-02-15T13:40:07.896Z,101984.03
2023-02-15T13:42:52.176Z,101984.97
2023-02-15T13:46:13.024Z,101974.66
2023-02-15T13:49:19.836Z,101975.47
2023-02-15T13:52:29.490Z,101974.28
2023-02-15T13:55:56.292Z,101966.81
2023-02-15T13:59:23.930Z,101968.28
2023-02-15T14:02:12.700Z,101972.94
2023-02-15T14:05:02.646Z,101969.72
2023-02-15T14:08:01.800Z,101974.22
2023-02-15T14:11:34.622Z,101975.19
2023-02-15T14:14:47.624Z,101980.00
2023-02-15T14:18:38.912Z,101981.41
2023-02-15T14:21:39.886Z,101978.69
2023-02-15T14:24:45.584Z,101972.66
2023-02-15T14:27:46.977Z,101974.00
2023-02-15T14:30:42.335Z,101970.31
2023-02-15T14:33:55.715Z,101965.19
2023-02-15T14:36:31.323Z,101961.13
2023-02-15T14:40:14.821Z,101953.94
2023-02-15T14:43:16.605Z,101950.53
2023-02-15T14:46:22.409Z,101949.88
2023-02-15T14:49:04.793Z,101944.19
2023-02-15T14:51:44.107Z,101962.06
2023-02-15T14:54:22.633Z,101955.84
2023-02-15T14:57:04.466Z,101952.28
2023-02-15T14:59:58.493Z,101955.91
2023-02-15T15:02:53.626Z,101950.88
2023-02-15T15:05:50.134Z,101948.03
2023-02-15T15:08:37.383Z,101944.84
2023-02-15T15:11:50.364Z,101942.13
2023-02-15T15:14:35.302Z,101936.59
2023-02-15T15:17:12.404Z,101936.97
2023-02-15T15:19:52.036Z,101937.34
2023-02-15T15:22:31.217Z,101927.19
2023-02-15T15:25:33.516Z,101923.94
2023-02-15T15:28:04.579Z,101935.63
2023-02-15T15:30:34.503Z,101934.28
2023-02-15T15:34:10.891Z,101933.22
2023-02-15T15:37:30.755Z,101937.97
2023-02-15T15:40:40.685Z,101939.63
2023-02-15T15:44:06.844Z,101940.50
2023-02-15T15:47:06.924Z,101938.81
2023-02-15T15:49:41.327Z,101939.31
2023-02-15T15:52:20.916Z,101927.91
2023-02-15T15:55:16.798Z,101936.66
2023-02-15T15:57:54.468Z,101926.63
2023-02-15T16:00:43.626Z,101936.44
2023-02-15T16:03:28.934Z,101930.50
2023-02-15T16:06:01.399Z,101934.16
2023-02-15T16:08:39.585Z,101930.72
2023-02-15T16:11:32.177Z,101931.66
2023-02-15T16:14:01.053Z,101924.56
2023-02-15T16:16:31.981Z,101929.34
2023-02-15T16:19:00.922Z,101921.19
2023-02-15T16:21:38.627Z,101916.88
2023-02-15T16:24:38.977Z,101911.44
2023-02-15T16:27:41.889Z,101913.72
2023-02-15T16:30:28.035Z,101903.69
2023-02-15T16:33:17.043Z,101900.75
2023-02-15T16:36:04.259Z,101905.16
2023-02-15T16:38:43.395Z,101899.84
2023-02-15T16:41:22.925Z,101901.03
2023-02-15T16:43:59.223Z,101901.38
2023-02-15T16:46:43.081Z,101899.81
2023-02-15T16:49:27.199Z,101905.13
2023-02-15T16:52:08.108Z,101906.59
2023-02-15T16:54:38.517Z,101906.91
2023-02-15T16:57:29.664Z,101902.56
2023-02-15T17:00:21.685Z,101910.59
2023-02-15T17:03:28.269Z,101904.31
2023-02-15T17:06:02.621Z,101902.47
2023-02-15T17:08:45.745Z,101895.13
2023-02-15T17:11:20.109Z,101900.16
2023-02-15T17:14:05.806Z,101910.41
2023-02-15T17:16:59.377Z,101911.84
2023-02-15T17:19:42.568Z,101912.47
2023-02-15T17:22:31.914Z,101904.00
2023-02-15T17:25:05.541Z,101899.75
2023-02-15T17:27:36.018Z,101904.75
2023-02-15T17:30:39.410Z,101907.38
2023-02-15T17:33:33.879Z,101902.38
2023-02-15T17:36:23.477Z,101896.31
2023-02-15T17:38:59.741Z,101900.22
2023-02-15T17:41:38.330Z,101894.88
2023-02-15T17:44:12.133Z,101902.13
2023-02-15T17:46:44.784Z,101902.72
2023-02-15T17:49:34.895Z,101895.09
2023-02-15T17:52:05.376Z,101896.28
2023-02-15T17:54:54.124Z,101896.63
2023-02-15T17:57:24.166Z,101904.69
2023-02-15T18:00:12.843Z,101907.06
2023-02-15T18:03:02.842Z,101903.59
2023-02-15T18:05:51.720Z,101902.88
2023-02-15T18:08:46.890Z,101902.97
2023-02-15T18:11:35.697Z,101900.09
2023-02-15T18:14:10.405Z,101892.81
2023-02-15T18:16:45.836Z,101890.78
2023-02-15T18:19:27.278Z,101888.97
2023-02-15T18:21:57.838Z,101895.97
2023-02-15T18:24:27.559Z,101890.38
2023-02-15T18:26:55.987Z,101891.88
2023-02-15T18:29:24.320Z,101889.59
2023-02-15T18:31:58.206Z,101878.06
2023-02-15T18:34:39.737Z,101877.47
2023-02-15T18:37:33.673Z,101879.84
2023-02-15T18:40:04.393Z,101881.38
2023-02-15T18:42:36.274Z,101888.34
2023-02-15T18:45:32.987Z,101878.94
2023-02-15T18:48:03.517Z,101882.16
2023-02-15T18:50:36.823Z,101876.50
2023-02-15T18:53:20.548Z,101867.94
2023-02-15T18:55:49.736Z,101874.47
2023-02-15T18:58:24.746Z,101879.34
2023-02-15T19:00:55.097Z,101876.00
2023-02-15T19:03:25.162Z,101882.16
2023-02-15T19:05:55.093Z,101868.94
2023-02-15T19:08:24.901Z,101865.84
2023-02-15T19:10:55.595Z,101870.91
2023-02-15T19:13:25.630Z,101874.94
2023-02-15T19:15:55.823Z,101872.91
2023-02-15T19:18:26.489Z,101861.59
2023-02-15T19:20:56.592Z,101862.28
2023-02-15T19:23:27.012Z,101861.06
2023-02-15T19:25:57.155Z,101864.22
2023-02-15T19:28:34.643Z,101855.91
2023-02-15T19:31:04.227Z,101847.53
2023-02-15T19:33:34.821Z,101842.53
2023-02-15T19:36:17.510Z,101840.28
2023-02-15T19:38:54.607Z,101836.09
2023-02-15T19:41:34.460Z,101840.09
2023-02-15T19:44:04.038Z,101833.00
2023-02-15T19:46:31.759Z,101827.16
2023-02-15T19:49:00.152Z,101821.53
2023-02-15T19:51:28.532Z,101824.72
2023-02-15T19:53:57.856Z,101823.28
2023-02-15T19:56:27.038Z,101822.03
2023-02-15T19:58:57.827Z,101808.00
2023-02-15T20:01:25.588Z,101809.31
2023-02-15T20:03:54.623Z,101810.38
2023-02-15T20:06:22.048Z,101807.66
2023-02-15T20:08:51.139Z,101811.41
2023-02-15T20:11:18.742Z,101799.06
2023-02-15T20:13:47.119Z,101799.50
2023-02-15T20:16:15.661Z,101792.19
2023-02-15T20:18:46.517Z,101788.84
2023-02-15T20:21:19.705Z,101787.16
2023-02-15T20:23:48.822Z,101787.16
2023-02-15T20:26:29.781Z,101797.47
2023-02-15T20:29:00.853Z,101785.34
2023-02-15T20:31:31.068Z,101778.44
2023-02-15T20:34:01.364Z,101786.84
2023-02-15T20:36:31.821Z,101791.91
2023-02-15T20:39:17.492Z,101791.31
2023-02-15T20:41:48.003Z,101793.19
2023-02-15T20:44:31.893Z,101784.84
2023-02-15T20:47:02.806Z,101783.19
2023-02-15T20:49:32.532Z,101780.06
2023-02-15T20:52:12.576Z,101792.25
2023-02-15T20:54:42.762Z,101790.78
2023-02-15T20:57:13.332Z,101786.41
2023-02-15T20:59:42.457Z,101783.91
2023-02-15T21:02:23.962Z,101785.41
2023-02-15T21:04:55.527Z,101790.22
2023-02-15T21:07:23.934Z,101796.13
2023-02-15T21:09:54.340Z,101796.97
2023-02-15T21:12:25.418Z,101795.31
2023-02-15T21:14:55.207Z,101799.06
2023-02-15T21:17:24.973Z,101791.56
2023-02-15T21:19:54.799Z,101799.34
2023-02-15T21:22:24.870Z,101803.34
2023-02-15T21:24:55.167Z,101796.25
2023-02-15T21:27:25.188Z,101794.78
2023-02-15T21:29:53.722Z,101792.28
2023-02-15T21:32:22.217Z,101788.72
2023-02-15T21:34:50.596Z,101787.06
2023-02-15T21:37:36.616Z,101784.53
2023-02-15T21:40:07.091Z,101781.19
2023-02-15T21:42:55.585Z,101784.75
2023-02-15T21:45:43.976Z,101787.72
2023-02-15T21:48:14.632Z,101782.06
2023-02-15T21:51:03.208Z,101787.38
2023-02-15T21:53:42.640Z,101789.69
2023-02-15T21:56:21.977Z,101778.38
2023-02-15T21:58:50.267Z,101785.09
2023-02-15T22:01:28.530Z,101788.50
2023-02-15T22:03:59.756Z,101783.25
2023-02-15T22:06:29.487Z,101782.22
2023-02-15T22:08:59.257Z,101790.59
2023-02-15T22:11:30.116Z,101789.16
2023-02-15T22:14:00.266Z,101786.63
2023-02-15T22:16:31.031Z,101782.25
2023-02-15T22:19:00.791Z,101784.56
2023-02-15T22:21:31.508Z,101791.28
2023-02-15T22:24:01.508Z,101783.78
2023-02-15T22:26:31.319Z,101784.41
2023-02-15T22:29:01.012Z,101779.41
2023-02-15T22:31:30.944Z,101788.84
2023-02-15T22:34:01.103Z,101779.44
2023-02-15T22:36:31.272Z,101782.38
2023-02-15T22:39:01.296Z,101783.44
2023-02-15T22:41:31.923Z,101775.69
2023-02-15T22:44:00.285Z,101781.34
2023-02-15T22:46:30.112Z,101777.19
2023-02-15T22:48:57.310Z,101776.56
2023-02-15T22:51:27.079Z,101783.91
2023-02-15T22:53:55.682Z,101778.66
2023-02-15T22:56:49.012Z,101776.38
2023-02-15T22:59:30.059Z,101773.03
2023-02-15T23:01:58.830Z,101768.88
2023-02-15T23:04:29.990Z,101766.38
2023-02-15T23:07:01.030Z,101759.47
2023-02-15T23:09:31.066Z,101764.06
2023-02-15T23:12:00.751Z,101762.41
2023-02-15T23:14:36.805Z,101757.78
2023-02-15T23:17:06.804Z,101756.13
2023-02-15T23:19:36.750Z,101759.06
2023-02-15T23:22:18.352Z,101759.06
2023-02-15T23:24:53.521Z,101764.28
2023-02-15T23:27:41.319Z,101769.28
2023-02-15T23:30:16.443Z,101768.66
2023-02-15T23:32:45.482Z,101769.72
2023-02-15T23:35:20.057Z,101761.78
2023-02-15T23:37:48.947Z,101764.72
2023-02-15T23:40:40.508Z,101770.38
2023-02-15T23:43:22.771Z,101768.91
2023-02-15T23:45:52.758Z,101772.88
2023-02-15T23:48:38.546Z,101764.72
2023-02-15T23:51:11.436Z,101766.63
2023-02-15T23:53:39.916Z,101764.94
2023-02-15T23:56:14.693Z,101778.53
2023-02-15T23:58:47.235Z,101769.53
